createdAt,value
2019-02-08T00:01:45.746Z,2.17
2019-02-08T00:06:51.966Z,2.33
2019-02-08T00:11:57.544Z,1.77
2019-02-08T00:17:02.938Z,2.00
2019-02-08T00:22:08.987Z,3.30
2019-02-08T00:27:14.380Z,2.40
2019-02-08T00:32:19.769Z,3.57
2019-02-08T00:37:25.162Z,2.93
2019-02-08T00:42:30.543Z,2.00
2019-02-08T00:47:35.938Z,1.80
2019-02-08T00:52:41.334Z,3.60
2019-02-08T00:57:47.329Z,2.50
2019-02-08T01:02:55.214Z,2.03
2019-02-08T01:08:00.601Z,2.60
2019-02-08T01:13:06.200Z,3.60
2019-02-08T01:18:11.590Z,1.57
2019-02-08T01:23:16.984Z,1.97
2019-02-08T01:28:22.447Z,2.23
2019-02-08T01:33:27.839Z,2.03
2019-02-08T01:38:52.629Z,1.80
2019-02-08T01:43:58.011Z,1.70
2019-02-08T01:49:03.469Z,2.63
2019-02-08T01:54:08.849Z,1.53
2019-02-08T01:59:14.237Z,2.40
2019-02-08T02:04:19.716Z,2.27
2019-02-08T02:09:25.085Z,1.77
2019-02-08T02:14:30.734Z,2.23
2019-02-08T02:19:36.121Z,2.33
2019-02-08T02:24:41.507Z,2.87
2019-02-08T02:29:46.888Z,1.77
2019-02-08T02:34:52.432Z,1.73
2019-02-08T02:39:57.817Z,1.40
2019-02-08T02:45:03.674Z,2.37
2019-02-08T02:50:12.539Z,1.67
2019-02-08T02:55:24.332Z,1.83
2019-02-08T03:00:37.285Z,1.90
2019-02-08T03:05:42.807Z,2.20
2019-02-08T03:10:48.264Z,1.37
2019-02-08T03:15:53.717Z,1.90
2019-02-08T03:20:59.108Z,2.00
2019-02-08T03:26:04.634Z,1.93
2019-02-08T03:31:10.024Z,1.73
2019-02-08T03:36:15.426Z,2.10
2019-02-08T03:41:20.807Z,1.63
2019-02-08T03:46:26.199Z,1.83
2019-02-08T03:51:31.610Z,2.63
2019-02-08T03:56:37.010Z,2.37
2019-02-08T04:01:42.398Z,1.57
2019-02-08T04:06:47.796Z,2.00
2019-02-08T04:11:53.190Z,1.40
2019-02-08T04:16:58.582Z,1.83
2019-02-08T04:22:03.981Z,2.23
2019-02-08T04:27:09.372Z,3.47
2019-02-08T04:32:14.757Z,1.47
2019-02-08T04:37:20.154Z,1.00
2019-02-08T04:42:25.537Z,2.30
2019-02-08T04:47:30.928Z,1.67
2019-02-08T04:52:36.333Z,1.90
2019-02-08T04:57:42.096Z,1.40
2019-02-08T05:02:47.571Z,1.17
2019-02-08T05:07:54.171Z,1.17
2019-02-08T05:13:00.111Z,2.30
2019-02-08T05:18:05.646Z,1.40
2019-02-08T05:23:11.126Z,1.33
2019-02-08T05:28:16.516Z,1.90
2019-02-08T05:33:21.911Z,1.70
2019-02-08T05:38:27.307Z,1.60
2019-02-08T05:43:32.695Z,1.70
2019-02-08T05:48:38.083Z,1.60
2019-02-08T05:53:43.479Z,1.23
2019-02-08T05:58:48.873Z,1.63
2019-02-08T06:03:54.334Z,1.27
2019-02-08T06:08:59.808Z,1.37
2019-02-08T06:14:06.716Z,1.57
2019-02-08T06:19:12.104Z,1.40
2019-02-08T06:24:19.044Z,1.67
2019-02-08T06:29:24.442Z,1.63
2019-02-08T06:34:29.831Z,3.20
2019-02-08T06:39:35.226Z,1.50
2019-02-08T06:44:40.613Z,1.77
2019-02-08T06:49:45.998Z,1.70
2019-02-08T06:54:51.383Z,1.90
2019-02-08T06:59:58.414Z,0.73
2019-02-08T07:05:24.403Z,1.70
2019-02-08T07:10:41.506Z,2.27
2019-02-08T07:15:48.619Z,2.60
2019-02-08T07:21:11.067Z,3.57
2019-02-08T07:26:21.002Z,3.83
2019-02-08T07:31:35.099Z,1.93
2019-02-08T07:36:51.181Z,3.37
2019-02-08T07:42:15.307Z,2.53
2019-02-08T07:47:23.250Z,2.77
2019-02-08T07:52:43.159Z,2.93
2019-02-08T07:57:50.403Z,3.20
2019-02-08T08:02:57.438Z,2.80
2019-02-08T08:08:27.688Z,4.43
2019-02-08T08:13:55.057Z,2.70
2019-02-08T08:19:07.017Z,3.57
2019-02-08T08:24:23.191Z,1.80
2019-02-08T08:29:43.164Z,4.73
2019-02-08T08:35:08.050Z,4.13
2019-02-08T08:40:40.445Z,5.20
2019-02-08T08:46:13.056Z,4.50
2019-02-08T08:51:36.790Z,3.93
2019-02-08T08:57:21.492Z,4.60
2019-02-08T09:02:59.818Z,5.07
2019-02-08T09:08:27.558Z,4.53
2019-02-08T09:14:17.821Z,6.57
2019-02-08T09:19:47.106Z,6.40
2019-02-08T09:25:15.283Z,6.00
2019-02-08T09:31:00.257Z,2.03
2019-02-08T09:36:31.522Z,3.67
2019-02-08T09:41:53.673Z,4.53
2019-02-08T09:47:12.650Z,5.40
2019-02-08T09:52:55.271Z,3.30
2019-02-08T09:58:24.231Z,2.17
2019-02-08T10:04:11.445Z,1.87
2019-02-08T10:09:46.796Z,4.63
2019-02-08T10:15:37.419Z,2.93
2019-02-08T10:21:15.986Z,3.83
2019-02-08T10:26:56.807Z,4.90
2019-02-08T10:32:35.380Z,4.10
2019-02-08T10:38:00.353Z,2.60
2019-02-08T10:43:43.590Z,4.27
2019-02-08T10:49:11.403Z,4.40
2019-02-08T10:54:40.757Z,5.13
2019-02-08T11:00:13.029Z,2.50
2019-02-08T11:05:55.985Z,5.23
2019-02-08T11:11:31.972Z,4.00
2019-02-08T11:17:10.462Z,4.00
2019-02-08T11:22:15.869Z,5.23
2019-02-08T11:27:21.489Z,3.40
2019-02-08T11:32:42.518Z,10.43
2019-02-08T11:37:33.988Z,9.47
2019-02-08T11:42:39.451Z,12.30
2019-02-08T11:47:44.913Z,9.10
2019-02-08T11:52:50.473Z,6.43
2019-02-08T11:57:55.842Z,6.80
2019-02-08T12:03:01.242Z,10.50
2019-02-08T12:08:07.850Z,6.67
2019-02-08T12:13:13.248Z,5.70
2019-02-08T12:18:18.777Z,5.37
2019-02-08T12:23:24.178Z,7.37
2019-02-08T12:28:29.568Z,3.10
2019-02-08T12:33:34.969Z,4.70
2019-02-08T12:38:40.378Z,3.83
2019-02-08T12:43:45.761Z,5.27
2019-02-08T12:48:51.156Z,7.67
2019-02-08T12:53:56.540Z,2.57
2019-02-08T12:59:02.109Z,4.20
2019-02-08T13:04:07.631Z,7.50
2019-02-08T13:09:13.448Z,5.40
2019-02-08T13:14:18.841Z,5.90
2019-02-08T13:19:24.225Z,4.43
2019-02-08T13:24:29.607Z,5.93
2019-02-08T13:29:34.988Z,4.70
2019-02-08T13:34:40.372Z,7.57
2019-02-08T13:39:45.771Z,6.47
2019-02-08T13:44:51.167Z,5.47
2019-02-08T13:49:59.369Z,4.80
2019-02-08T13:55:09.034Z,5.07
2019-02-08T14:00:39.354Z,5.50
2019-02-08T14:05:44.760Z,7.03
2019-02-08T14:10:50.139Z,7.77
2019-02-08T14:15:55.540Z,6.20
2019-02-08T14:21:00.983Z,5.70
2019-02-08T14:26:06.465Z,7.73
2019-02-08T14:31:11.878Z,7.33
2019-02-08T14:36:17.273Z,6.47
2019-02-08T14:41:22.677Z,6.57
2019-02-08T14:46:28.057Z,10.47
2019-02-08T14:51:33.515Z,8.90
2019-02-08T14:56:38.979Z,11.03
2019-02-08T15:01:44.370Z,9.03
2019-02-08T15:06:49.767Z,13.97
2019-02-08T15:11:55.257Z,13.47
2019-02-08T15:17:01.682Z,16.70
2019-02-08T15:22:07.085Z,14.37
2019-02-08T15:27:12.554Z,16.07
2019-02-08T15:32:17.962Z,18.00
2019-02-08T15:37:23.399Z,17.90
2019-02-08T15:42:28.850Z,19.57
2019-02-08T15:47:34.250Z,21.80
2019-02-08T15:52:39.711Z,22.07
2019-02-08T15:57:45.182Z,27.60
2019-02-08T16:02:51.087Z,26.30
2019-02-08T16:07:57.559Z,22.20
2019-02-08T16:13:04.156Z,26.53
2019-02-08T16:18:10.447Z,25.33
2019-02-08T16:23:15.838Z,25.00
2019-02-08T16:28:21.233Z,24.20
2019-02-08T16:33:26.762Z,24.83
2019-02-08T16:38:32.167Z,31.33
2019-02-08T16:43:37.667Z,22.83
2019-02-08T16:48:43.074Z,31.80
2019-02-08T16:53:53.326Z,25.20
2019-02-08T16:58:55.551Z,28.10
2019-02-08T17:04:00.943Z,24.53
2019-02-08T17:09:10.980Z,22.63
2019-02-08T17:14:16.381Z,27.07
2019-02-08T17:19:21.844Z,25.23
2019-02-08T17:24:27.249Z,32.67
2019-02-08T17:29:33.087Z,33.23
2019-02-08T17:34:39.370Z,33.43
2019-02-08T17:39:44.768Z,29.17
2019-02-08T17:44:50.159Z,28.90
2019-02-08T17:49:55.594Z,30.37
2019-02-08T17:55:00.989Z,29.17
2019-02-08T18:00:19.675Z,24.63
2019-02-08T18:05:25.083Z,28.93
2019-02-08T18:10:30.627Z,29.70
2019-02-08T18:15:36.019Z,24.80
2019-02-08T18:20:51.442Z,24.17
2019-02-08T18:25:56.993Z,25.87
2019-02-08T18:31:03.826Z,26.90
2019-02-08T18:36:09.285Z,25.30
2019-02-08T18:41:14.680Z,23.43
2019-02-08T18:46:20.088Z,26.70
2019-02-08T18:51:25.488Z,25.77
2019-02-08T18:56:31.043Z,25.03
2019-02-08T19:01:36.442Z,24.03
2019-02-08T19:06:41.931Z,21.03
2019-02-08T19:11:47.345Z,21.43
2019-02-08T19:16:52.786Z,21.20
2019-02-08T19:21:58.144Z,19.80
2019-02-08T19:27:03.543Z,21.00
2019-02-08T19:32:08.944Z,17.83
2019-02-08T19:37:14.509Z,18.07
2019-02-08T19:42:20.085Z,16.37
2019-02-08T19:47:26.449Z,17.97
2019-02-08T19:52:31.847Z,18.53
2019-02-08T19:57:37.239Z,16.57
2019-02-08T20:02:42.646Z,17.63
2019-02-08T20:07:48.248Z,15.53
2019-02-08T20:12:54.383Z,16.63
2019-02-08T20:17:59.881Z,14.83
2019-02-08T20:23:07.262Z,16.93
2019-02-08T20:28:12.660Z,13.03
2019-02-08T20:33:18.137Z,17.63
2019-02-08T20:38:25.084Z,13.77
2019-02-08T20:43:30.584Z,12.37
2019-02-08T20:48:35.993Z,11.53
2019-02-08T20:53:41.406Z,17.03
2019-02-08T20:58:50.325Z,13.93
2019-02-08T21:03:54.061Z,14.17
2019-02-08T21:08:59.534Z,10.77
2019-02-08T21:14:05.104Z,12.33
2019-02-08T21:19:10.495Z,11.70
2019-02-08T21:24:16.962Z,9.90
2019-02-08T21:29:22.358Z,11.07
2019-02-08T21:34:27.758Z,10.80
2019-02-08T21:39:33.146Z,11.20
2019-02-08T21:44:38.550Z,10.00
2019-02-08T21:49:43.969Z,10.77
2019-02-08T21:54:49.482Z,10.87
2019-02-08T21:59:56.096Z,10.50
2019-02-08T22:05:01.484Z,11.27
2019-02-08T22:10:11.451Z,8.33
2019-02-08T22:15:27.567Z,7.33
2019-02-08T22:20:33.027Z,9.63
2019-02-08T22:25:38.764Z,9.03
2019-02-08T22:30:44.222Z,9.30
2019-02-08T22:35:49.629Z,7.37
2019-02-08T22:40:56.158Z,7.93
2019-02-08T22:46:02.546Z,7.53
2019-02-08T22:51:07.934Z,10.43
2019-02-08T22:56:13.329Z,7.17
2019-02-08T23:01:26.178Z,7.53
2019-02-08T23:06:31.722Z,9.40
2019-02-08T23:11:37.146Z,6.73
2019-02-08T23:16:42.770Z,7.77
2019-02-08T23:21:48.230Z,7.47
2019-02-08T23:26:53.696Z,9.27
2019-02-08T23:31:59.086Z,6.20
2019-02-08T23:37:04.633Z,5.90
2019-02-08T23:42:10.088Z,6.30
2019-02-08T23:47:15.486Z,7.03
2019-02-08T23:52:20.876Z,6.53
2019-02-08T23:57:26.261Z,5.90
